createdAt,value
2023-03-12T00:02:24.148Z,3.53
2023-03-12T00:04:51.172Z,2.53
2023-03-12T00:07:17.551Z,1.45
2023-03-12T00:09:45.046Z,0.81
2023-03-12T00:12:11.449Z,0.55
2023-03-12T00:14:37.895Z,0.33
2023-03-12T00:17:04.380Z,0.39
2023-03-12T00:19:30.840Z,0.42
2023-03-12T00:21:57.945Z,0.38
2023-03-12T00:24:24.426Z,0.37
2023-03-12T00:26:50.848Z,0.29
2023-03-12T00:29:17.298Z,0.41
2023-03-12T00:31:43.754Z,0.36
2023-03-12T00:34:10.373Z,0.57
2023-03-12T00:36:36.842Z,0.64
2023-03-12T00:39:03.915Z,0.60
2023-03-12T00:41:30.292Z,0.56
2023-03-12T00:43:56.711Z,0.59
2023-03-12T00:46:23.428Z,0.57
2023-03-12T00:48:49.855Z,0.62
2023-03-12T00:51:16.276Z,0.63
2023-03-12T00:53:42.801Z,0.68
2023-03-12T00:56:09.928Z,0.63
2023-03-12T00:58:36.496Z,0.66
2023-03-12T01:01:03.386Z,0.74
2023-03-12T01:03:29.864Z,0.70
2023-03-12T01:05:56.277Z,0.62
2023-03-12T01:08:23.541Z,0.59
2023-03-12T01:10:50.076Z,0.70
2023-03-12T01:13:17.633Z,0.67
2023-03-12T01:15:44.036Z,0.76
2023-03-12T01:18:10.838Z,0.76
2023-03-12T01:20:37.412Z,0.77
2023-03-12T01:23:04.080Z,0.93
2023-03-12T01:25:30.713Z,0.79
2023-03-12T01:27:57.124Z,0.91
2023-03-12T01:30:24.397Z,0.88
2023-03-12T01:32:51.797Z,0.99
2023-03-12T01:35:18.884Z,0.93
2023-03-12T01:37:45.666Z,1.04
2023-03-12T01:40:14.875Z,1.04
2023-03-12T01:42:41.465Z,1.13
2023-03-12T01:45:41.316Z,1.29
2023-03-12T01:48:09.626Z,1.38
2023-03-12T01:50:36.297Z,1.19
2023-03-12T01:53:02.881Z,1.31
2023-03-12T01:55:29.626Z,1.17
2023-03-12T01:57:58.162Z,1.08
2023-03-12T02:00:26.562Z,1.11
2023-03-12T02:02:59.026Z,1.02
2023-03-12T02:05:32.241Z,0.97
2023-03-12T02:07:59.511Z,1.00
2023-03-12T02:10:26.844Z,0.99
2023-03-12T02:12:53.572Z,0.89
2023-03-12T02:15:20.512Z,0.89
2023-03-12T02:17:46.962Z,0.74
2023-03-12T02:20:19.049Z,0.78
2023-03-12T02:22:51.501Z,0.78
2023-03-12T02:25:29.606Z,0.67
2023-03-12T02:27:58.601Z,0.59
2023-03-12T02:30:30.869Z,0.50
2023-03-12T02:33:01.157Z,0.45
2023-03-12T02:35:27.567Z,0.41
2023-03-12T02:37:56.160Z,0.40
2023-03-12T02:40:29.037Z,0.36
2023-03-12T02:42:56.046Z,0.39
2023-03-12T02:45:24.778Z,0.39
2023-03-12T02:47:52.195Z,0.40
2023-03-12T02:50:18.862Z,0.43
2023-03-12T02:52:45.372Z,0.45
2023-03-12T02:55:11.828Z,0.55
2023-03-12T02:57:39.334Z,0.56
2023-03-12T03:00:11.875Z,0.57
2023-03-12T03:02:40.547Z,0.57
2023-03-12T03:05:08.558Z,0.73
2023-03-12T03:07:35.313Z,0.92
2023-03-12T03:10:03.686Z,0.97
2023-03-12T03:12:30.735Z,1.02
2023-03-12T03:14:58.658Z,1.03
2023-03-12T03:17:26.116Z,0.94
2023-03-12T03:19:52.996Z,1.00
2023-03-12T03:22:20.959Z,0.98
2023-03-12T03:24:48.183Z,1.03
2023-03-12T03:27:14.833Z,0.92
2023-03-12T03:29:44.233Z,1.00
2023-03-12T03:32:11.512Z,1.15
2023-03-12T03:34:38.576Z,1.10
2023-03-12T03:37:05.413Z,1.09
2023-03-12T03:39:33.856Z,1.04
2023-03-12T03:42:00.733Z,1.10
2023-03-12T03:44:29.683Z,0.99
2023-03-12T03:46:56.330Z,1.07
2023-03-12T03:49:23.476Z,1.09
2023-03-12T03:51:50.937Z,1.31
2023-03-12T03:54:23.293Z,1.31
2023-03-12T03:56:49.878Z,1.32
2023-03-12T03:59:16.366Z,1.33
2023-03-12T04:01:43.959Z,1.53
2023-03-12T04:04:10.386Z,1.59
2023-03-12T04:06:37.463Z,1.60
2023-03-12T04:09:04.459Z,1.66
2023-03-12T04:11:32.684Z,1.71
2023-03-12T04:14:00.149Z,1.55
2023-03-12T04:16:30.111Z,1.56
2023-03-12T04:18:57.713Z,1.53
2023-03-12T04:21:24.971Z,1.63
2023-03-12T04:23:52.094Z,1.73
2023-03-12T04:26:21.485Z,1.83
2023-03-12T04:28:47.895Z,1.69
2023-03-12T04:31:14.542Z,1.74
2023-03-12T04:33:50.106Z,1.81
2023-03-12T04:36:17.681Z,1.86
2023-03-12T04:38:48.563Z,1.97
2023-03-12T04:41:18.379Z,1.93
2023-03-12T04:44:05.366Z,2.06
2023-03-12T04:46:33.818Z,1.94
2023-03-12T04:49:01.949Z,1.91
2023-03-12T04:51:30.965Z,1.94
2023-03-12T04:53:58.265Z,1.90
2023-03-12T04:56:25.878Z,1.83
2023-03-12T04:58:52.579Z,1.88
2023-03-12T05:01:24.979Z,1.89
2023-03-12T05:03:52.145Z,1.95
2023-03-12T05:06:19.268Z,1.87
2023-03-12T05:08:46.163Z,1.70
2023-03-12T05:11:13.356Z,1.75
2023-03-12T05:13:40.621Z,1.77
2023-03-12T05:16:08.134Z,1.88
2023-03-12T05:18:34.665Z,1.90
2023-03-12T05:21:03.771Z,1.80
2023-03-12T05:23:30.948Z,1.78
2023-03-12T05:25:58.656Z,1.71
2023-03-12T05:28:27.548Z,1.68
2023-03-12T05:30:57.980Z,1.71
2023-03-12T05:33:25.310Z,1.77
2023-03-12T05:35:51.955Z,1.72
2023-03-12T05:38:18.822Z,1.61
2023-03-12T05:40:51.085Z,1.81
2023-03-12T05:43:17.507Z,1.77
2023-03-12T05:45:44.042Z,1.87
2023-03-12T05:48:11.139Z,1.99
2023-03-12T05:50:37.593Z,2.02
2023-03-12T05:53:04.572Z,1.99
2023-03-12T05:55:34.566Z,2.14
2023-03-12T05:58:01.153Z,2.16
2023-03-12T06:00:27.808Z,2.23
2023-03-12T06:02:56.268Z,2.16
2023-03-12T06:05:23.603Z,2.24
2023-03-12T06:07:50.134Z,2.29
2023-03-12T06:10:18.550Z,2.20
2023-03-12T06:12:45.239Z,2.24
2023-03-12T06:15:11.822Z,2.26
2023-03-12T06:17:38.343Z,2.39
2023-03-12T06:20:06.050Z,2.43
2023-03-12T06:22:33.195Z,2.40
2023-03-12T06:24:59.792Z,2.40
2023-03-12T06:27:27.505Z,2.47
2023-03-12T06:29:53.905Z,2.53
2023-03-12T06:32:20.580Z,2.66
2023-03-12T06:34:47.206Z,2.88
2023-03-12T06:37:13.633Z,2.97
2023-03-12T06:39:41.150Z,3.09
2023-03-12T06:42:07.750Z,2.90
2023-03-12T06:44:34.180Z,2.88
2023-03-12T06:47:00.585Z,2.87
2023-03-12T06:49:31.344Z,2.88
2023-03-12T06:51:57.809Z,3.60
2023-03-12T06:54:24.281Z,3.23
2023-03-12T06:56:51.351Z,3.11
2023-03-12T06:59:17.881Z,3.10
2023-03-12T07:01:44.271Z,2.99
2023-03-12T07:04:10.772Z,2.93
2023-03-12T07:06:37.239Z,3.07
2023-03-12T07:09:04.546Z,2.96
2023-03-12T07:11:30.960Z,3.00
2023-03-12T07:13:58.025Z,2.85
2023-03-12T07:16:24.672Z,2.94
2023-03-12T07:18:51.607Z,2.96
2023-03-12T07:21:21.947Z,3.03
2023-03-12T07:23:48.761Z,3.19
2023-03-12T07:26:15.375Z,3.33
2023-03-12T07:28:41.880Z,3.37
2023-03-12T07:31:09.027Z,3.59
2023-03-12T07:33:36.035Z,3.58
2023-03-12T07:36:03.767Z,3.63
2023-03-12T07:38:30.752Z,3.71
2023-03-12T07:40:59.510Z,3.96
2023-03-12T07:43:26.122Z,3.91
2023-03-12T07:45:54.401Z,3.95
2023-03-12T07:48:21.593Z,3.94
2023-03-12T07:50:48.719Z,3.92
2023-03-12T07:53:15.582Z,3.94
2023-03-12T07:55:44.167Z,4.02
2023-03-12T07:58:12.264Z,4.15
2023-03-12T08:00:39.951Z,3.90
2023-03-12T08:03:06.495Z,3.97
2023-03-12T08:05:33.749Z,3.95
2023-03-12T08:08:01.771Z,3.91
2023-03-12T08:10:28.313Z,3.75
2023-03-12T08:12:54.823Z,3.70
2023-03-12T08:15:21.346Z,3.56
2023-03-12T08:17:47.837Z,3.70
2023-03-12T08:20:14.467Z,3.67
2023-03-12T08:22:41.504Z,3.76
2023-03-12T08:25:09.014Z,3.79
2023-03-12T08:27:35.447Z,3.70
2023-03-12T08:30:01.878Z,3.82
2023-03-12T08:32:28.822Z,3.84
2023-03-12T08:34:55.325Z,3.81
2023-03-12T08:37:22.477Z,3.96
2023-03-12T08:39:49.624Z,3.96
2023-03-12T08:42:16.039Z,3.67
2023-03-12T08:44:42.427Z,3.59
2023-03-12T08:47:08.831Z,3.62
2023-03-12T08:49:35.239Z,3.74
2023-03-12T08:52:01.755Z,3.80
2023-03-12T08:54:28.269Z,3.72
2023-03-12T08:56:55.332Z,3.72
2023-03-12T08:59:22.664Z,3.68
2023-03-12T09:01:49.428Z,3.76
2023-03-12T09:04:16.277Z,3.94
2023-03-12T09:06:42.857Z,4.00
2023-03-12T09:09:09.278Z,4.11
2023-03-12T09:11:38.938Z,4.03
2023-03-12T09:16:53.341Z,4.21
2023-03-12T09:19:20.390Z,4.21
2023-03-12T09:21:46.925Z,4.06
2023-03-12T09:24:13.329Z,3.78
2023-03-12T09:26:39.807Z,3.76
2023-03-12T09:29:06.988Z,3.71
2023-03-12T09:31:33.951Z,3.87
2023-03-12T09:34:00.410Z,3.57
2023-03-12T09:36:26.888Z,3.41
2023-03-12T09:38:54.252Z,3.31
2023-03-12T09:41:23.246Z,3.02
2023-03-12T09:43:54.713Z,2.95
2023-03-12T09:46:26.745Z,3.12
2023-03-12T09:48:56.969Z,3.18
2023-03-12T09:51:29.471Z,3.09
2023-03-12T09:53:59.402Z,3.01
2023-03-12T09:56:27.006Z,2.94
2023-03-12T09:58:55.405Z,3.07
2023-03-12T10:01:43.596Z,3.27
2023-03-12T10:04:27.622Z,3.30
2023-03-12T10:07:01.303Z,3.45
2023-03-12T10:10:09.301Z,3.56
2023-03-12T10:12:58.022Z,3.63
2023-03-12T10:15:36.556Z,3.51
2023-03-12T10:18:16.840Z,3.38
2023-03-12T10:20:52.743Z,3.37
2023-03-12T10:23:27.296Z,3.19
2023-03-12T10:26:02.205Z,3.24
2023-03-12T10:28:33.979Z,3.41
2023-03-12T10:31:04.922Z,3.30
2023-03-12T10:33:42.075Z,3.31
2023-03-12T10:36:15.708Z,3.49
2023-03-12T10:38:42.160Z,3.76
2023-03-12T10:41:16.682Z,3.97
2023-03-12T10:43:43.662Z,3.88
2023-03-12T10:46:36.537Z,4.02
2023-03-12T10:49:24.604Z,4.05
2023-03-12T10:51:54.882Z,3.93
2023-03-12T10:54:22.988Z,3.99
2023-03-12T10:56:50.852Z,4.23
2023-03-12T10:59:21.321Z,4.44
2023-03-12T11:01:51.496Z,4.47
2023-03-12T11:04:21.352Z,4.57
2023-03-12T11:07:05.568Z,4.62
2023-03-12T11:09:32.234Z,4.62
2023-03-12T11:11:58.632Z,4.72
2023-03-12T11:14:27.689Z,4.69
2023-03-12T11:17:17.251Z,4.83
2023-03-12T11:19:43.785Z,5.08
2023-03-12T11:22:11.163Z,5.39
2023-03-12T11:24:57.062Z,5.46
2023-03-12T11:27:34.660Z,5.65
2023-03-12T11:30:04.201Z,5.58
2023-03-12T11:32:34.917Z,5.73
2023-03-12T11:35:03.659Z,5.48
2023-03-12T11:37:41.742Z,5.37
2023-03-12T11:40:16.906Z,5.34
2023-03-12T11:42:58.384Z,5.54
2023-03-12T11:45:30.883Z,5.79
2023-03-12T11:48:12.736Z,6.19
2023-03-12T11:50:51.610Z,6.26
2023-03-12T11:53:32.058Z,6.14
2023-03-12T11:56:15.309Z,6.32
2023-03-12T11:58:52.811Z,6.55
2023-03-12T12:01:27.176Z,6.62
2023-03-12T12:04:11.846Z,6.46
2023-03-12T12:06:49.738Z,6.46
2023-03-12T12:09:24.400Z,6.90
2023-03-12T12:12:05.567Z,7.01
2023-03-12T12:14:50.627Z,7.12
2023-03-12T12:17:31.440Z,6.91
2023-03-12T12:20:12.064Z,7.05
2023-03-12T12:22:52.221Z,6.91
2023-03-12T12:25:28.723Z,6.66
2023-03-12T12:28:08.614Z,6.53
2023-03-12T12:30:49.038Z,6.43
2023-03-12T12:33:30.378Z,6.29
2023-03-12T12:35:56.969Z,6.32
2023-03-12T12:38:29.756Z,6.19
2023-03-12T12:41:04.693Z,6.34
2023-03-12T12:43:35.877Z,6.41
2023-03-12T12:46:05.998Z,6.60
2023-03-12T12:48:37.592Z,6.67
2023-03-12T12:51:08.333Z,6.81
2023-03-12T12:53:43.443Z,6.97
2023-03-12T12:56:18.978Z,6.95
2023-03-12T12:59:10.097Z,6.88
2023-03-12T13:01:38.191Z,7.00
2023-03-12T13:04:10.927Z,6.96
2023-03-12T13:07:03.179Z,7.00
2023-03-12T13:09:39.369Z,7.08
2023-03-12T13:12:20.223Z,7.17
2023-03-12T13:14:48.393Z,7.34
2023-03-12T13:17:27.543Z,7.57
2023-03-12T13:20:01.738Z,7.60
2023-03-12T13:22:44.337Z,7.58
2023-03-12T13:25:34.949Z,7.74
2023-03-12T13:28:29.576Z,7.85
2023-03-12T13:30:57.346Z,7.86
2023-03-12T13:33:40.252Z,8.13
2023-03-12T13:36:22.739Z,8.29
2023-03-12T13:38:56.861Z,8.24
2023-03-12T13:41:36.023Z,8.33
2023-03-12T13:44:30.559Z,8.62
2023-03-12T13:46:59.423Z,8.89
2023-03-12T13:49:26.822Z,8.79
2023-03-12T13:52:08.083Z,8.79
2023-03-12T13:54:43.194Z,8.57
2023-03-12T13:57:25.701Z,8.60
2023-03-12T13:59:53.024Z,8.66
2023-03-12T14:02:27.445Z,8.68
2023-03-12T14:05:01.756Z,8.93
2023-03-12T14:08:10.312Z,8.69
2023-03-12T14:10:48.958Z,8.92
2023-03-12T14:13:47.953Z,9.18
2023-03-12T14:16:24.709Z,9.27
2023-03-12T14:18:52.965Z,9.59
2023-03-12T14:21:24.301Z,10.01
2023-03-12T14:23:54.512Z,9.79
2023-03-12T14:26:24.571Z,9.63
2023-03-12T14:28:59.522Z,9.52
2023-03-12T14:31:30.059Z,9.44
2023-03-12T14:34:01.421Z,9.48
2023-03-12T14:36:31.868Z,9.49
2023-03-12T14:39:09.924Z,9.47
2023-03-12T14:41:41.939Z,9.39
2023-03-12T14:44:21.399Z,9.42
2023-03-12T14:46:55.976Z,9.32
2023-03-12T14:49:24.671Z,9.34
2023-03-12T14:51:52.143Z,9.26
2023-03-12T14:54:20.389Z,9.21
2023-03-12T14:56:47.010Z,9.24
2023-03-12T14:59:27.056Z,9.45
2023-03-12T15:01:59.536Z,9.52
2023-03-12T15:04:26.687Z,9.59
2023-03-12T15:06:56.294Z,9.51
2023-03-12T15:09:25.902Z,9.33
2023-03-12T15:11:56.094Z,9.16
2023-03-12T15:14:24.372Z,9.26
2023-03-12T15:16:51.741Z,9.32
2023-03-12T15:19:26.116Z,9.16
2023-03-12T15:21:53.392Z,9.12
2023-03-12T15:24:20.316Z,9.06
2023-03-12T15:26:46.851Z,9.10
2023-03-12T15:29:25.797Z,9.08
2023-03-12T15:31:54.308Z,9.22
2023-03-12T15:34:32.222Z,9.17
2023-03-12T15:37:02.559Z,9.20
2023-03-12T15:39:31.921Z,9.10
2023-03-12T15:42:01.749Z,9.04
2023-03-12T15:44:31.479Z,8.97
2023-03-12T15:47:09.185Z,8.94
2023-03-12T15:49:38.591Z,9.04
2023-03-12T15:52:25.652Z,9.11
2023-03-12T15:55:22.286Z,9.13
2023-03-12T15:57:50.216Z,9.11
2023-03-12T16:00:20.600Z,8.97
2023-03-12T16:02:50.841Z,8.97
2023-03-12T16:05:18.791Z,9.01
2023-03-12T16:07:45.748Z,9.00
2023-03-12T16:10:14.981Z,8.99
2023-03-12T16:12:42.863Z,8.88
2023-03-12T16:15:14.487Z,8.92
2023-03-12T16:17:40.991Z,8.86
2023-03-12T16:20:11.221Z,8.89
2023-03-12T16:22:38.498Z,8.94
2023-03-12T16:25:05.927Z,8.95
2023-03-12T16:27:38.297Z,9.05
2023-03-12T16:30:11.789Z,8.99
2023-03-12T16:32:38.369Z,8.91
2023-03-12T16:35:12.147Z,8.84
2023-03-12T16:37:39.268Z,8.76
2023-03-12T16:40:07.306Z,8.73
2023-03-12T16:42:33.890Z,8.67
2023-03-12T16:45:00.729Z,8.70
2023-03-12T16:47:28.199Z,8.63
2023-03-12T16:49:54.651Z,8.59
2023-03-12T16:52:26.018Z,8.58
2023-03-12T16:54:53.164Z,8.48
2023-03-12T16:57:25.185Z,8.43
2023-03-12T16:59:52.192Z,8.65
2023-03-12T17:02:20.899Z,8.73
2023-03-12T17:04:52.182Z,8.49
2023-03-12T17:07:18.648Z,8.18
2023-03-12T17:09:45.037Z,8.12
2023-03-12T17:12:19.636Z,7.96
2023-03-12T17:14:46.390Z,7.87
2023-03-12T17:17:12.777Z,7.83
2023-03-12T17:19:39.753Z,7.76
2023-03-12T17:22:06.300Z,7.71
2023-03-12T17:24:33.479Z,7.65
2023-03-12T17:27:00.089Z,7.61
2023-03-12T17:29:29.476Z,7.66
2023-03-12T17:31:58.577Z,7.61
2023-03-12T17:34:25.391Z,7.63
2023-03-12T17:36:52.532Z,7.55
2023-03-12T17:39:19.173Z,7.65
2023-03-12T17:41:46.052Z,7.64
2023-03-12T17:44:14.045Z,7.58
2023-03-12T17:46:56.585Z,7.59
2023-03-12T17:49:25.495Z,7.51
2023-03-12T17:51:53.770Z,7.50
2023-03-12T17:54:21.292Z,7.50
2023-03-12T17:56:47.771Z,7.49
2023-03-12T17:59:14.188Z,7.52
2023-03-12T18:01:44.219Z,7.52
2023-03-12T18:04:10.670Z,7.50
2023-03-12T18:06:37.146Z,7.47
2023-03-12T18:09:03.841Z,7.43
2023-03-12T18:11:30.229Z,7.38
2023-03-12T18:13:58.997Z,7.37
2023-03-12T18:16:25.756Z,7.34
2023-03-12T18:18:53.163Z,7.35
2023-03-12T18:21:19.673Z,7.29
2023-03-12T18:23:46.123Z,7.28
2023-03-12T18:26:12.549Z,7.25
2023-03-12T18:28:39.114Z,7.25
2023-03-12T18:31:05.695Z,7.19
2023-03-12T18:33:32.184Z,7.13
2023-03-12T18:35:59.332Z,7.10
2023-03-12T18:38:25.912Z,7.05
2023-03-12T18:40:52.973Z,7.01
2023-03-12T18:43:21.751Z,7.00
2023-03-12T18:45:49.634Z,7.01
2023-03-12T18:48:16.029Z,6.95
2023-03-12T18:50:42.397Z,6.95
2023-03-12T18:53:09.460Z,6.93
2023-03-12T18:55:35.854Z,6.91
2023-03-12T18:58:02.451Z,6.85
2023-03-12T19:00:53.336Z,6.81
2023-03-12T19:03:20.445Z,6.83
2023-03-12T19:05:47.336Z,6.88
2023-03-12T19:08:15.211Z,6.83
2023-03-12T19:10:41.941Z,7.04
2023-03-12T19:13:08.567Z,6.99
2023-03-12T19:15:36.967Z,6.99
2023-03-12T19:18:03.724Z,7.00
2023-03-12T19:20:33.394Z,6.91
2023-03-12T19:23:01.176Z,7.03
2023-03-12T19:25:28.700Z,7.13
2023-03-12T19:27:55.278Z,7.12
2023-03-12T19:30:21.713Z,7.15
2023-03-12T19:32:50.071Z,7.02
2023-03-12T19:35:19.718Z,7.06
2023-03-12T19:37:46.362Z,7.10
2023-03-12T19:40:13.568Z,7.12
2023-03-12T19:42:40.702Z,7.13
2023-03-12T19:45:10.479Z,7.16
2023-03-12T19:47:37.358Z,7.19
2023-03-12T19:50:04.829Z,7.19
2023-03-12T19:52:31.466Z,7.28
2023-03-12T19:55:04.726Z,7.22
2023-03-12T19:57:32.846Z,7.19
2023-03-12T20:00:00.272Z,7.16
2023-03-12T20:02:27.107Z,7.18
2023-03-12T20:04:54.601Z,7.18
2023-03-12T20:07:21.082Z,7.07
2023-03-12T20:09:51.006Z,6.97
2023-03-12T20:12:17.612Z,6.94
2023-03-12T20:14:44.227Z,6.92
2023-03-12T20:17:11.600Z,6.87
2023-03-12T20:19:38.363Z,6.87
2023-03-12T20:22:05.263Z,6.80
2023-03-12T20:24:31.934Z,6.78
2023-03-12T20:26:58.424Z,6.80
2023-03-12T20:29:27.142Z,6.82
2023-03-12T20:31:53.678Z,6.79
2023-03-12T20:34:21.167Z,6.85
2023-03-12T20:36:47.725Z,6.88
2023-03-12T20:39:14.427Z,6.81
2023-03-12T20:41:41.225Z,6.83
2023-03-12T20:44:09.842Z,6.84
2023-03-12T20:46:36.305Z,6.92
2023-03-12T20:49:02.959Z,6.83
2023-03-12T20:51:30.203Z,6.90
2023-03-12T20:53:57.188Z,6.91
2023-03-12T20:56:23.754Z,6.89
2023-03-12T20:58:51.374Z,6.88
2023-03-12T21:01:17.955Z,6.85
2023-03-12T21:03:47.665Z,6.91
2023-03-12T21:06:14.281Z,6.96
2023-03-12T21:08:41.608Z,6.96
2023-03-12T21:11:08.097Z,6.97
2023-03-12T21:13:35.859Z,7.00
2023-03-12T21:16:05.069Z,7.04
2023-03-12T21:18:31.887Z,7.01
2023-03-12T21:21:01.969Z,7.08
2023-03-12T21:23:28.511Z,7.05
2023-03-12T21:25:59.429Z,7.04
2023-03-12T21:28:26.973Z,6.99
2023-03-12T21:30:53.648Z,7.00
2023-03-12T21:33:20.206Z,7.06
2023-03-12T21:35:46.985Z,7.11
2023-03-12T21:38:13.612Z,7.14
2023-03-12T21:40:41.423Z,7.21
2023-03-12T21:43:08.500Z,7.12
2023-03-12T21:45:34.971Z,6.99
2023-03-12T21:48:01.444Z,6.96
2023-03-12T21:50:27.906Z,6.91
2023-03-12T21:52:54.352Z,6.90
2023-03-12T21:55:20.943Z,6.92
2023-03-12T21:57:47.458Z,6.93
2023-03-12T22:00:15.435Z,6.87
2023-03-12T22:02:46.640Z,6.85
2023-03-12T22:05:13.328Z,6.96
2023-03-12T22:07:41.198Z,6.97
2023-03-12T22:10:11.172Z,7.00
2023-03-12T22:12:38.315Z,6.90
2023-03-12T22:15:06.432Z,6.99
2023-03-12T22:17:33.746Z,6.99
2023-03-12T22:20:00.524Z,6.95
2023-03-12T22:22:26.979Z,6.98
2023-03-12T22:24:53.541Z,6.91
2023-03-12T22:27:19.989Z,6.88
2023-03-12T22:29:46.415Z,6.82
2023-03-12T22:32:12.860Z,6.81
2023-03-12T22:34:40.086Z,6.82
2023-03-12T22:37:06.831Z,6.81
2023-03-12T22:39:33.488Z,6.84
2023-03-12T22:41:59.837Z,6.82
2023-03-12T22:44:26.237Z,6.72
2023-03-12T22:46:52.677Z,6.67
2023-03-12T22:49:19.075Z,6.56
2023-03-12T22:51:46.128Z,6.48
2023-03-12T22:54:12.486Z,6.41
2023-03-12T22:56:39.235Z,6.40
2023-03-12T22:59:05.658Z,6.42
2023-03-12T23:01:32.203Z,6.40
2023-03-12T23:03:59.025Z,6.32
2023-03-12T23:06:29.055Z,6.35
2023-03-12T23:08:56.463Z,6.32
2023-03-12T23:11:24.828Z,6.30
2023-03-12T23:13:51.339Z,6.32
2023-03-12T23:16:19.400Z,6.27
2023-03-12T23:18:46.693Z,6.25
2023-03-12T23:21:15.188Z,6.19
2023-03-12T23:23:42.726Z,6.16
2023-03-12T23:26:12.999Z,8.50
2023-03-12T23:28:39.399Z,9.68
2023-03-12T23:31:08.102Z,10.77
2023-03-12T23:33:35.218Z,10.77
2023-03-12T23:36:03.996Z,9.23
2023-03-12T23:38:31.362Z,8.08
2023-03-12T23:41:01.538Z,7.28
2023-03-12T23:43:28.868Z,6.94
2023-03-12T23:45:56.871Z,6.72
2023-03-12T23:48:23.506Z,6.48
2023-03-12T23:50:50.003Z,6.32
2023-03-12T23:53:16.406Z,6.24
2023-03-12T23:55:43.015Z,6.15
2023-03-12T23:58:09.403Z,6.14
